Time;durP1;ratioP1;P1;durP2;ratioP2;P2;SDS_P1;SDS_P2;PMS_P1;PMS_P2;Temp;Humidity;BMP_temperature;BMP_pressure;BME280_temperature;BME280_humidity;BME280_pressure;Samples;Min_cycle;Max_cycle;Signal;HPM_P1;HPM_P2
2021/08/24 00:01:01;;;;;;;16.83;6.90;;;;;;;;;;2106089;28;20051;-46
2021/08/24 00:02:02;;;;;;;13.73;7.20;;;;;;;;;;2106156;28;20097;-45
2021/08/24 00:03:03;;;;;;;14.63;7.28;;;;;;;;;;2101682;28;20074;-45
2021/08/24 00:04:06;;;;;;;18.27;7.25;;;;;;;;;;2105973;28;20044;-46
2021/08/24 00:05:08;;;;;;;13.68;6.60;;;;;;;;;;2105652;28;20047;-46
2021/08/24 00:06:09;;;;;;;16.95;7.03;;;;;;;;;;2103016;28;20074;-45
2021/08/24 00:07:10;;;;;;;17.65;8.07;;;;;;;;;;2106145;28;20044;-46
2021/08/24 00:08:11;;;;;;;13.93;7.37;;;;;;;;;;2104937;28;20044;-46
2021/08/24 00:09:12;;;;;;;15.43;6.72;;;;;;;;;;2103673;28;20493;-45
2021/08/24 00:10:13;;;;;;;13.83;7.27;;;;;;;;;;2106002;28;20050;-45
2021/08/24 00:11:14;;;;;;;16.90;7.15;;;;;;;;;;2104246;28;20386;-45
2021/08/24 00:12:16;;;;;;;13.20;6.28;;;;;;;;;;2103480;28;20535;-45
2021/08/24 00:13:18;;;;;;;10.95;6.68;;;;;;;;;;2105883;28;20047;-46
2021/08/24 00:14:19;;;;;;;;;;;;;;;;;;2104421;28;20048;-45
2021/08/24 00:15:20;;;;;;;15.60;6.57;;;;;;;;;;2104565;28;19920;-45
2021/08/24 00:16:21;;;;;;;12.45;6.38;;;;;;;;;;2106029;28;20079;-46
2021/08/24 00:17:22;;;;;;;13.67;7.17;;;;;;;;;;2103763;28;20665;-46
2021/08/24 00:18:23;;;;;;;11.20;7.10;;;;;;;;;;2104550;28;20054;-45
2021/08/24 00:19:25;;;;;;;11.17;5.93;;;;;;;;;;2105839;28;20154;-45
2021/08/24 00:20:30;;;;;;;12.38;7.00;;;;;;;;;;2103928;28;20044;-45
2021/08/24 00:21:31;;;;;;;15.23;7.32;;;;;;;;;;2104643;28;20044;-47
2021/08/24 00:22:34;;;;;;;11.95;6.75;;;;;;;;;;2106051;28;20055;-45
2021/08/24 00:23:35;;;;;;;14.90;7.30;;;;;;;;;;2102310;28;20056;-45
2021/08/24 00:24:36;;;;;;;9.70;6.93;;;;;;;;;;2105834;28;20148;-46
2021/08/24 00:25:37;;;;;;;12.77;7.10;;;;;;;;;;2105971;28;20056;-46
2021/08/24 00:26:38;;;;;;;14.13;7.22;;;;;;;;;;2102391;28;20635;-45
2021/08/24 00:27:40;;;;;;;11.25;7.07;;;;;;;;;;2105740;28;20547;-45
2021/08/24 00:28:41;;;;;;;12.45;6.97;;;;;;;;;;2106006;28;20138;-45
2021/08/24 00:29:42;;;;;;;15.45;7.00;;;;;;;;;;2102618;28;20131;-45
2021/08/24 00:30:43;;;;;;;13.20;7.03;;;;;;;;;;2105935;28;20131;-45
2021/08/24 00:31:44;;;;;;;10.73;6.88;;;;;;;;;;2105444;28;20048;-45
2021/08/24 00:32:45;;;;;;;13.75;6.90;;;;;;;;;;2102597;28;20046;-46
2021/08/24 00:33:46;;;;;;;16.40;7.77;;;;;;;;;;2106011;28;20078;-45
2021/08/24 00:34:47;;;;;;;16.88;7.20;;;;;;;;;;2105452;28;20043;-46
2021/08/24 00:35:49;;;;;;;14.50;6.30;;;;;;;;;;2102823;28;20082;-46
2021/08/24 00:36:49;;;;;;;16.25;6.97;;;;;;;;;;2105948;28;20048;-46
2021/08/24 00:37:51;;;;;;;13.40;7.10;;;;;;;;;;2104962;28;20537;-46
2021/08/24 00:38:53;;;;;;;11.43;6.75;;;;;;;;;;2103588;28;20417;-45
2021/08/24 00:39:54;;;;;;;11.03;6.43;;;;;;;;;;2105812;28;20051;-45
2021/08/24 00:40:56;;;;;;;13.93;6.53;;;;;;;;;;2103638;28;20481;-46
2021/08/24 00:41:57;;;;;;;10.32;6.25;;;;;;;;;;2103771;28;20404;-46
2021/08/24 00:42:58;;;;;;;12.45;6.53;;;;;;;;;;2105950;28;20051;-45
2021/08/24 00:43:59;;;;;;;10.13;6.33;;;;;;;;;;2103858;28;20039;-45
2021/08/24 00:44:59;;;;;;;15.82;6.78;;;;;;;;;;2103140;28;20416;-46
2021/08/24 00:46:04;;;;;;;10.40;6.70;;;;;;;;;;2105826;28;20047;-46
2021/08/24 00:47:07;;;;;;;10.18;6.88;;;;;;;;;;2102945;28;20046;-45
2021/08/24 00:48:09;;;;;;;10.93;6.40;;;;;;;;;;2104706;28;20123;-46
2021/08/24 00:49:11;;;;;;;13.77;6.60;;;;;;;;;;2105982;28;20361;-45
2021/08/24 00:50:17;;;;;;;12.80;6.13;;;;;;;;;;2102447;28;20093;-45
2021/08/24 00:51:21;;;;;;;12.80;6.45;;;;;;;;;;2105895;28;20139;-45
2021/08/24 00:52:22;;;;;;;13.10;6.22;;;;;;;;;;2105137;28;20048;-46
2021/08/24 00:53:24;;;;;;;8.82;6.30;;;;;;;;;;2103653;28;20048;-45
2021/08/24 00:54:26;;;;;;;8.48;6.40;;;;;;;;;;2107264;28;20507;-45
2021/08/24 00:55:27;;;;;;;7.65;5.70;;;;;;;;;;2106857;28;20078;-45
2021/08/24 00:56:29;;;;;;;14.15;7.22;;;;;;;;;;2104342;28;20051;-45
2021/08/24 00:57:30;;;;;;;8.18;5.72;;;;;;;;;;2107318;28;20058;-46
2021/08/24 00:58:31;;;;;;;11.50;5.90;;;;;;;;;;2106788;28;20048;-45
2021/08/24 00:59:32;;;;;;;11.77;6.53;;;;;;;;;;2104103;28;20097;-46
2021/08/24 01:00:33;;;;;;;8.02;5.78;;;;;;;;;;2107358;28;20050;-46
2021/08/24 01:01:34;;;;;;;9.05;6.38;;;;;;;;;;2106437;28;20052;-46
2021/08/24 01:02:35;;;;;;;13.95;6.45;;;;;;;;;;2103969;28;20044;-45
2021/08/24 01:03:40;;;;;;;11.05;6.60;;;;;;;;;;2106565;28;20873;-46
2021/08/24 01:04:41;;;;;;;12.35;6.10;;;;;;;;;;2105022;28;20339;-46
2021/08/24 01:05:45;;;;;;;11.05;6.10;;;;;;;;;;2104330;28;20075;-45
2021/08/24 01:06:47;;;;;;;10.60;6.43;;;;;;;;;;2106899;28;20454;-46
2021/08/24 01:07:52;;;;;;;10.13;6.00;;;;;;;;;;2104664;28;20169;-45
2021/08/24 01:09:00;;;;;;;12.00;6.65;;;;;;;;;;2106005;28;20044;-46
2021/08/24 01:10:05;;;;;;;8.55;5.90;;;;;;;;;;2107317;28;20044;-45
2021/08/24 01:11:09;;;;;;;10.68;5.97;;;;;;;;;;2103833;28;20036;-46
2021/08/24 01:12:14;;;;;;;9.02;6.40;;;;;;;;;;2102142;28;20123;-47
2021/08/24 01:13:20;;;;;;;8.27;5.60;;;;;;;;;;2106634;28;20356;-45
2021/08/24 01:14:28;;;;;;;11.88;5.78;;;;;;;;;;2104168;28;20124;-45
2021/08/24 01:15:32;;;;;;;11.20;5.88;;;;;;;;;;2107068;28;20059;-49
2021/08/24 01:16:36;;;;;;;13.15;6.35;;;;;;;;;;2105106;28;20408;-45
2021/08/24 01:17:39;;;;;;;10.35;6.43;;;;;;;;;;2105508;28;20142;-45
2021/08/24 01:18:44;;;;;;;12.15;6.53;;;;;;;;;;2107351;28;20062;-45
2021/08/24 01:20:09;;;;;;;10.82;6.88;;;;;;;;;;2104713;28;21079;-45
2021/08/24 01:21:24;;;;;;;9.40;5.95;;;;;;;;;;2098810;28;20166;-46
2021/08/24 01:22:42;;;;;;;9.23;6.68;;;;;;;;;;2099491;28;20127;-46
2021/08/24 01:23:50;;;;;;;11.27;6.32;;;;;;;;;;2105813;28;20416;-45
2021/08/24 01:24:55;;;;;;;11.63;6.30;;;;;;;;;;2106580;28;20136;-46
2021/08/24 01:26:00;;;;;;;8.27;6.32;;;;;;;;;;2102977;28;20178;-46
2021/08/24 01:27:02;;;;;;;9.32;6.20;;;;;;;;;;2106943;28;20122;-46
2021/08/24 01:28:07;;;;;;;11.38;6.75;;;;;;;;;;2106386;28;20051;-46
2021/08/24 01:29:23;;;;;;;8.93;6.43;;;;;;;;;;2103360;28;20050;-45
2021/08/24 01:30:32;;;;;;;9.15;6.40;;;;;;;;;;2105137;28;20126;-45
2021/08/24 01:31:53;;;;;;;9.77;7.20;;;;;;;;;;2104163;28;20520;-45
2021/08/24 01:32:56;;;;;;;11.82;6.68;;;;;;;;;;2098589;28;20124;-45
2021/08/24 01:34:04;;;;;;;18.48;6.50;;;;;;;;;;2098421;28;20047;-46
2021/08/24 01:35:13;;;;;;;9.25;6.43;;;;;;;;;;2102694;28;20501;-45
2021/08/24 01:36:17;;;;;;;11.23;6.45;;;;;;;;;;2107093;28;20046;-46
2021/08/24 01:37:19;;;;;;;10.63;6.30;;;;;;;;;;2105039;28;20052;-46
2021/08/24 01:38:21;;;;;;;11.50;6.68;;;;;;;;;;2105391;28;20123;-46
2021/08/24 01:39:25;;;;;;;12.85;7.00;;;;;;;;;;2107103;28;20054;-46
2021/08/24 01:40:31;;;;;;;13.77;6.63;;;;;;;;;;2104897;28;20044;-46
2021/08/24 01:41:34;;;;;;;11.88;6.45;;;;;;;;;;2105710;28;20516;-46
2021/08/24 01:42:36;;;;;;;9.52;6.47;;;;;;;;;;2106777;28;20131;-46
2021/08/24 01:43:44;;;;;;;17.58;7.72;;;;;;;;;;2104731;28;20131;-45
2021/08/24 01:44:53;;;;;;;13.85;6.78;;;;;;;;;;2098572;28;20258;-46
2021/08/24 01:45:59;;;;;;;14.90;7.22;;;;;;;;;;2098306;28;20055;-46
2021/08/24 01:47:03;;;;;;;12.27;7.18;;;;;;;;;;2103600;28;20162;-46
2021/08/24 01:48:09;;;;;;;15.50;7.38;;;;;;;;;;2106797;28;20051;-45
2021/08/24 01:49:10;;;;;;;13.60;7.10;;;;;;;;;;2104999;28;20058;-47
2021/08/24 01:50:14;;;;;;;12.10;6.78;;;;;;;;;;2105375;28;20040;-45
2021/08/24 01:51:17;;;;;;;15.07;6.82;;;;;;;;;;2106848;28;20126;-46
2021/08/24 01:52:21;;;;;;;12.40;6.90;;;;;;;;;;2102885;28;20063;-46
2021/08/24 01:53:24;;;;;;;11.40;7.10;;;;;;;;;;2106518;28;20101;-46
2021/08/24 01:54:26;;;;;;;21.42;8.05;;;;;;;;;;2106991;28;20123;-46
2021/08/24 01:55:30;;;;;;;12.18;6.80;;;;;;;;;;2104157;28;20044;-46
2021/08/24 01:56:35;;;;;;;12.23;6.78;;;;;;;;;;2099068;28;20132;-48
2021/08/24 01:57:40;;;;;;;11.30;7.32;;;;;;;;;;2098501;28;20131;-46
2021/08/24 01:58:43;;;;;;;13.60;6.78;;;;;;;;;;2103001;28;20484;-46
2021/08/24 01:59:47;;;;;;;15.73;7.78;;;;;;;;;;2106783;28;20506;-47
2021/08/24 02:00:53;;;;;;;14.10;6.60;;;;;;;;;;2106312;28;20580;-47
2021/08/24 02:01:58;;;;;;;16.02;7.65;;;;;;;;;;2101205;28;20044;-45
2021/08/24 02:03:01;;;;;;;13.23;7.18;;;;;;;;;;2098070;28;20086;-45
2021/08/24 02:04:04;;;;;;;12.07;6.85;;;;;;;;;;2099553;28;20401;-45
2021/08/24 02:05:08;;;;;;;12.23;7.53;;;;;;;;;;2105198;28;20097;-45
2021/08/24 02:06:11;;;;;;;15.40;6.90;;;;;;;;;;2106888;28;20131;-47
2021/08/24 02:07:14;;;;;;;11.25;6.47;;;;;;;;;;2103723;28;20677;-46
2021/08/24 02:08:17;;;;;;;10.68;7.32;;;;;;;;;;2105738;28;20131;-45
2021/08/24 02:09:23;;;;;;;15.60;7.50;;;;;;;;;;2106688;28;20413;-46
2021/08/24 02:10:24;;;;;;;14.15;7.03;;;;;;;;;;2103663;28;20170;-46
2021/08/24 02:11:26;;;;;;;16.98;7.82;;;;;;;;;;2106647;28;20079;-47
2021/08/24 02:12:30;;;;;;;14.30;7.30;;;;;;;;;;2106769;28;20127;-46
2021/08/24 02:13:33;;;;;;;11.48;7.35;;;;;;;;;;2103130;28;20051;-45
2021/08/24 02:14:36;;;;;;;19.00;7.47;;;;;;;;;;2106895;28;20186;-46
2021/08/24 02:15:39;;;;;;;13.57;7.78;;;;;;;;;;2106281;28;20139;-47
2021/08/24 02:16:40;;;;;;;12.25;7.20;;;;;;;;;;2103582;28;20473;-46
2021/08/24 02:17:42;;;;;;;13.07;7.03;;;;;;;;;;2106783;28;20083;-46
2021/08/24 02:18:48;;;;;;;9.85;7.10;;;;;;;;;;2105741;28;20044;-46
2021/08/24 02:19:52;;;;;;;16.00;6.95;;;;;;;;;;2104270;28;20131;-45
2021/08/24 02:20:55;;;;;;;13.65;6.72;;;;;;;;;;2106593;28;20130;-46
2021/08/24 02:22:00;;;;;;;13.55;7.30;;;;;;;;;;2104467;28;20135;-47
2021/08/24 02:23:03;;;;;;;12.02;7.20;;;;;;;;;;2104908;28;20043;-48
2021/08/24 02:24:06;;;;;;;11.85;7.00;;;;;;;;;;2106786;28;20050;-45
2021/08/24 02:25:09;;;;;;;15.07;7.53;;;;;;;;;;2104518;28;20194;-45
2021/08/24 02:26:11;;;;;;;14.02;7.78;;;;;;;;;;2105612;28;20523;-46
2021/08/24 02:27:16;;;;;;;10.57;7.35;;;;;;;;;;2106793;28;20144;-49
2021/08/24 02:28:21;;;;;;;16.25;8.00;;;;;;;;;;2102086;28;20127;-47
2021/08/24 02:29:22;;;;;;;10.18;7.10;;;;;;;;;;2106725;28;20043;-46
2021/08/24 02:30:23;;;;;;;15.83;8.20;;;;;;;;;;2106455;28;20047;-46
2021/08/24 02:31:27;;;;;;;11.25;7.28;;;;;;;;;;2103680;28;20054;-45
2021/08/24 02:32:31;;;;;;;10.82;7.32;;;;;;;;;;2106485;28;20519;-46
2021/08/24 02:33:36;;;;;;;12.35;7.80;;;;;;;;;;2105826;28;20592;-48
2021/08/24 02:34:43;;;;;;;12.63;8.18;;;;;;;;;;2104355;28;20489;-46
2021/08/24 02:35:48;;;;;;;13.32;7.70;;;;;;;;;;2106699;28;20127;-45
2021/08/24 02:36:52;;;;;;;12.75;7.95;;;;;;;;;;2104418;28;20494;-46
2021/08/24 02:37:54;;;;;;;12.13;7.60;;;;;;;;;;2105360;28;20082;-46
2021/08/24 02:38:59;;;;;;;12.13;7.43;;;;;;;;;;2106553;28;20044;-46
2021/08/24 02:40:03;;;;;;;12.25;8.20;;;;;;;;;;2104030;28;20044;-46
2021/08/24 02:41:08;;;;;;;16.83;8.02;;;;;;;;;;2106115;28;20453;-45
2021/08/24 02:42:13;;;;;;;13.60;7.70;;;;;;;;;;2106627;28;20048;-45
2021/08/24 02:43:17;;;;;;;11.15;7.45;;;;;;;;;;2103055;28;20509;-46
2021/08/24 02:44:21;;;;;;;15.98;7.90;;;;;;;;;;2106500;28;20486;-46
2021/08/24 02:45:24;;;;;;;13.23;7.57;;;;;;;;;;2106133;28;20052;-46
2021/08/24 02:46:28;;;;;;;13.65;8.18;;;;;;;;;;2104176;28;20044;-46
2021/08/24 02:47:34;;;;;;;10.88;7.32;;;;;;;;;;2106472;28;20101;-46
2021/08/24 02:48:36;;;;;;;15.70;8.07;;;;;;;;;;2104499;28;20400;-46
2021/08/24 02:49:38;;;;;;;12.80;7.88;;;;;;;;;;2105215;28;20104;-46
2021/08/24 02:50:40;;;;;;;9.50;7.28;;;;;;;;;;2106487;28;20131;-45
2021/08/24 02:51:41;;;;;;;;;;;;;;;;;;2104244;28;20144;-48
2021/08/24 02:52:43;;;;;;;13.38;7.68;;;;;;;;;;2104474;28;19973;-46
2021/08/24 02:53:45;;;;;;;11.55;8.52;;;;;;;;;;2106507;28;20051;-45
2021/08/24 02:54:45;;;;;;;;;;;;;;;;;;2103701;28;20130;-46
2021/08/24 02:55:47;;;;;;;16.77;7.97;;;;;;;;;;2106340;28;19927;-46
2021/08/24 02:56:51;;;;;;;11.80;8.00;;;;;;;;;;2106431;28;20040;-49
2021/08/24 02:57:52;;;;;;;11.83;8.33;;;;;;;;;;2103288;28;20283;-45
2021/08/24 02:58:54;;;;;;;12.63;7.38;;;;;;;;;;2106256;28;20044;-46
2021/08/24 02:59:55;;;;;;;12.60;7.83;;;;;;;;;;2106453;28;20044;-47
2021/08/24 03:00:56;;;;;;;12.93;8.23;;;;;;;;;;2103033;28;20044;-46
2021/08/24 03:01:57;;;;;;;14.02;8.85;;;;;;;;;;2105930;28;20048;-49
2021/08/24 03:02:59;;;;;;;14.57;8.60;;;;;;;;;;2106319;28;20421;-46
2021/08/24 03:04:00;;;;;;;16.25;8.82;;;;;;;;;;2102965;28;20044;-46
2021/08/24 03:05:01;;;;;;;14.38;8.50;;;;;;;;;;2106586;28;20044;-46
2021/08/24 03:06:02;;;;;;;12.63;8.10;;;;;;;;;;2105880;28;20066;-46
2021/08/24 03:07:05;;;;;;;13.00;7.80;;;;;;;;;;2103484;28;20256;-46
2021/08/24 03:08:06;;;;;;;12.63;7.38;;;;;;;;;;2106265;28;20276;-45
2021/08/24 03:09:09;;;;;;;13.88;7.72;;;;;;;;;;2105870;28;20044;-46
2021/08/24 03:10:12;;;;;;;16.80;8.60;;;;;;;;;;2103937;28;20051;-46
2021/08/24 03:11:17;;;;;;;12.85;8.80;;;;;;;;;;2106560;28;20232;-45
2021/08/24 03:12:25;;;;;;;12.20;8.35;;;;;;;;;;2103975;28;20554;-46
2021/08/24 03:13:28;;;;;;;12.90;8.43;;;;;;;;;;2105526;28;20055;-45
2021/08/24 03:14:32;;;;;;;12.07;8.50;;;;;;;;;;2106055;28;20048;-46
2021/08/24 03:15:36;;;;;;;13.20;8.23;;;;;;;;;;2101895;28;20552;-46
2021/08/24 03:16:43;;;;;;;14.43;8.10;;;;;;;;;;2106124;28;20507;-46
2021/08/24 03:17:48;;;;;;;13.57;8.55;;;;;;;;;;2106367;28;20052;-45
2021/08/24 03:18:51;;;;;;;11.48;7.75;;;;;;;;;;2101648;28;20044;-46
2021/08/24 03:19:54;;;;;;;11.68;7.70;;;;;;;;;;2098108;28;20063;-45
2021/08/24 03:20:58;;;;;;;11.75;8.05;;;;;;;;;;2098355;28;20151;-45
2021/08/24 03:21:59;;;;;;;12.82;8.20;;;;;;;;;;2103339;28;20044;-46
2021/08/24 03:23:00;;;;;;;17.58;9.43;;;;;;;;;;2106210;28;20135;-46
2021/08/24 03:24:03;;;;;;;13.10;8.52;;;;;;;;;;2105025;28;20074;-45
2021/08/24 03:25:05;;;;;;;13.00;8.90;;;;;;;;;;2103878;28;20413;-46
2021/08/24 03:26:05;;;;;;;;;;;;;;;;;;2106266;28;20070;-45
2021/08/24 03:27:07;;;;;;;12.32;8.05;;;;;;;;;;2104388;28;20349;-46
2021/08/24 03:28:11;;;;;;;11.23;7.60;;;;;;;;;;2104727;28;20301;-45
2021/08/24 03:29:13;;;;;;;10.82;7.68;;;;;;;;;;2106290;28;20569;-46
2021/08/24 03:30:15;;;;;;;14.68;8.63;;;;;;;;;;2103536;28;20135;-45
2021/08/24 03:31:17;;;;;;;13.25;9.00;;;;;;;;;;2105949;28;20050;-46
2021/08/24 03:32:18;;;;;;;18.98;8.45;;;;;;;;;;2106110;28;20051;-46
2021/08/24 03:33:19;;;;;;;13.32;8.43;;;;;;;;;;2104259;28;20048;-47
2021/08/24 03:34:20;;;;;;;11.82;8.75;;;;;;;;;;2104904;28;20052;-45
2021/08/24 03:35:22;;;;;;;15.73;8.80;;;;;;;;;;2106175;28;20119;-46
2021/08/24 03:36:23;;;;;;;13.68;8.85;;;;;;;;;;2101902;28;20167;-46
2021/08/24 03:37:24;;;;;;;13.10;8.68;;;;;;;;;;2105960;28;20576;-45
2021/08/24 03:38:25;;;;;;;17.55;9.23;;;;;;;;;;2106324;28;20127;-46
2021/08/24 03:39:27;;;;;;;12.35;8.65;;;;;;;;;;2102587;28;20105;-46
2021/08/24 03:40:28;;;;;;;12.68;8.45;;;;;;;;;;2097933;28;20079;-45
2021/08/24 03:41:29;;;;;;;13.30;9.45;;;;;;;;;;2097456;28;20462;-46
2021/08/24 03:42:31;;;;;;;11.65;8.05;;;;;;;;;;2101069;28;20098;-46
2021/08/24 03:43:32;;;;;;;14.93;9.40;;;;;;;;;;2106275;28;20050;-47
2021/08/24 03:44:33;;;;;;;16.03;9.50;;;;;;;;;;2105743;28;20048;-47
2021/08/24 03:45:37;;;;;;;14.25;9.20;;;;;;;;;;2102037;28;20277;-46
2021/08/24 03:46:39;;;;;;;12.40;8.57;;;;;;;;;;2106110;28;20044;-46
2021/08/24 03:47:40;;;;;;;12.23;8.40;;;;;;;;;;2105672;28;20196;-45
2021/08/24 03:48:41;;;;;;;12.05;9.40;;;;;;;;;;2103134;28;20530;-47
2021/08/24 03:49:42;;;;;;;12.10;8.48;;;;;;;;;;2106129;28;20055;-46
2021/08/24 03:50:43;;;;;;;14.93;9.17;;;;;;;;;;2104916;28;20059;-45
2021/08/24 03:51:46;;;;;;;12.07;8.73;;;;;;;;;;2103271;28;20076;-47
2021/08/24 03:52:49;;;;;;;12.00;8.67;;;;;;;;;;2104542;28;20044;-48
2021/08/24 03:53:50;;;;;;;11.77;9.05;;;;;;;;;;2104004;28;20532;-47
2021/08/24 03:54:51;;;;;;;13.07;8.75;;;;;;;;;;2104486;28;20127;-45
2021/08/24 03:55:52;;;;;;;15.90;8.90;;;;;;;;;;2106247;28;20072;-47
2021/08/24 03:56:53;;;;;;;13.13;8.95;;;;;;;;;;2103738;28;20043;-46
2021/08/24 03:57:55;;;;;;;13.13;9.77;;;;;;;;;;2105022;28;20134;-46
2021/08/24 03:58:56;;;;;;;15.65;9.73;;;;;;;;;;2106193;28;20036;-45
2021/08/24 03:59:57;;;;;;;12.50;9.00;;;;;;;;;;2102870;28;20375;-46
2021/08/24 04:00:58;;;;;;;15.63;10.30;;;;;;;;;;2105877;28;20097;-45
2021/08/24 04:02:00;;;;;;;15.55;9.32;;;;;;;;;;2106001;28;20044;-45
2021/08/24 04:03:02;;;;;;;14.80;9.52;;;;;;;;;;2103864;28;20044;-46
2021/08/24 04:04:03;;;;;;;14.68;9.18;;;;;;;;;;2105876;28;20123;-45
2021/08/24 04:05:04;;;;;;;18.50;10.25;;;;;;;;;;2100582;28;20135;-45
2021/08/24 04:06:05;;;;;;;18.13;10.00;;;;;;;;;;2100703;28;20548;-45
2021/08/24 04:07:06;;;;;;;15.73;10.73;;;;;;;;;;2105715;28;20068;-45
2021/08/24 04:08:07;;;;;;;17.83;10.63;;;;;;;;;;2104500;28;20097;-45
2021/08/24 04:09:08;;;;;;;16.33;9.32;;;;;;;;;;2100592;28;20541;-45
2021/08/24 04:10:10;;;;;;;13.93;9.13;;;;;;;;;;2105023;28;20044;-46
2021/08/24 04:11:11;;;;;;;16.38;10.15;;;;;;;;;;2104790;28;20123;-46
2021/08/24 04:12:14;;;;;;;19.03;10.50;;;;;;;;;;2100412;28;20055;-45
2021/08/24 04:13:15;;;;;;;14.43;9.13;;;;;;;;;;2103708;28;20044;-45
2021/08/24 04:14:16;;;;;;;18.48;10.27;;;;;;;;;;2104140;28;20075;-46
2021/08/24 04:15:17;;;;;;;16.88;10.20;;;;;;;;;;2101465;28;20043;-45
2021/08/24 04:16:19;;;;;;;14.63;9.32;;;;;;;;;;2104824;28;20080;-45
2021/08/24 04:17:20;;;;;;;14.55;10.88;;;;;;;;;;2103880;28;20047;-46
2021/08/24 04:18:21;;;;;;;15.65;9.65;;;;;;;;;;2102349;28;20048;-47
2021/08/24 04:19:22;;;;;;;12.55;9.35;;;;;;;;;;2101724;28;20406;-46
2021/08/24 04:20:24;;;;;;;16.47;9.40;;;;;;;;;;2103359;28;20044;-45
2021/08/24 04:21:25;;;;;;;19.80;11.10;;;;;;;;;;2101648;28;20050;-45
2021/08/24 04:22:26;;;;;;;13.87;9.37;;;;;;;;;;2104219;28;20506;-45
2021/08/24 04:23:27;;;;;;;13.30;9.88;;;;;;;;;;2103040;28;20036;-46
2021/08/24 04:24:28;;;;;;;13.85;10.27;;;;;;;;;;2102837;28;20348;-45
2021/08/24 04:25:29;;;;;;;16.13;10.07;;;;;;;;;;2104988;28;20479;-47
2021/08/24 04:26:30;;;;;;;16.90;10.17;;;;;;;;;;2103244;28;20048;-46
2021/08/24 04:27:31;;;;;;;15.23;9.88;;;;;;;;;;2101886;28;20139;-46
2021/08/24 04:28:33;;;;;;;18.33;11.20;;;;;;;;;;2105069;28;20058;-47
2021/08/24 04:29:36;;;;;;;15.20;10.30;;;;;;;;;;2102311;28;20047;-45
2021/08/24 04:30:37;;;;;;;15.30;9.50;;;;;;;;;;2101771;28;20494;-47
2021/08/24 04:31:39;;;;;;;14.45;10.40;;;;;;;;;;2104375;28;20062;-45
2021/08/24 04:32:40;;;;;;;;;;;;;;;;;;2097868;28;20097;-45
2021/08/24 04:33:41;;;;;;;16.70;10.50;;;;;;;;;;2101290;28;19920;-46
2021/08/24 04:34:42;;;;;;;15.37;10.00;;;;;;;;;;2100461;28;20060;-45
2021/08/24 04:35:43;;;;;;;16.63;11.05;;;;;;;;;;2100273;28;20665;-47
2021/08/24 04:36:44;;;;;;;14.30;10.87;;;;;;;;;;2101252;28;20052;-45
2021/08/24 04:37:45;;;;;;;14.15;9.98;;;;;;;;;;2100917;28;20070;-45
2021/08/24 04:38:46;;;;;;;19.20;11.00;;;;;;;;;;2100395;28;20048;-45
2021/08/24 04:39:47;;;;;;;15.40;9.15;;;;;;;;;;2101799;28;20123;-49
2021/08/24 04:40:48;;;;;;;16.13;10.93;;;;;;;;;;2102291;28;20382;-52
2021/08/24 04:41:49;;;;;;;12.90;9.38;;;;;;;;;;2101355;28;20139;-46
2021/08/24 04:42:51;;;;;;;12.85;8.90;;;;;;;;;;2105496;28;20130;-45
2021/08/24 04:43:52;;;;;;;17.13;10.32;;;;;;;;;;2105579;28;20134;-45
2021/08/24 04:44:53;;;;;;;12.25;8.63;;;;;;;;;;2101321;28;20099;-45
2021/08/24 04:45:55;;;;;;;17.60;10.43;;;;;;;;;;2102915;28;20052;-46
2021/08/24 04:46:56;;;;;;;14.63;9.73;;;;;;;;;;2105009;28;20040;-45
2021/08/24 04:47:57;;;;;;;13.07;9.48;;;;;;;;;;2101174;28;20446;-46
2021/08/24 04:48:59;;;;;;;14.55;9.75;;;;;;;;;;2105463;28;20119;-45
2021/08/24 04:50:00;;;;;;;14.50;9.23;;;;;;;;;;2104767;28;20551;-48
2021/08/24 04:51:01;;;;;;;15.18;10.52;;;;;;;;;;2102930;28;20071;-44
2021/08/24 04:52:02;;;;;;;17.70;10.97;;;;;;;;;;2105581;28;20079;-43
2021/08/24 04:53:03;;;;;;;17.02;10.68;;;;;;;;;;2102436;28;20295;-44
2021/08/24 04:54:05;;;;;;;15.38;10.27;;;;;;;;;;2103494;28;20135;-45
2021/08/24 04:55:06;;;;;;;17.88;11.32;;;;;;;;;;2105475;28;20051;-43
2021/08/24 04:56:07;;;;;;;14.57;9.60;;;;;;;;;;2103649;28;20127;-43
2021/08/24 04:57:08;;;;;;;14.57;10.82;;;;;;;;;;2102666;28;20484;-43
2021/08/24 04:58:09;;;;;;;15.45;10.38;;;;;;;;;;2105292;28;20048;-43
2021/08/24 04:59:11;;;;;;;19.25;12.00;;;;;;;;;;2103495;28;20135;-44
2021/08/24 05:00:13;;;;;;;18.67;11.35;;;;;;;;;;2103897;28;20118;-46
2021/08/24 05:01:13;;;;;;;;;;;;;;;;;;2106281;28;20074;-45
2021/08/24 05:02:15;;;;;;;14.80;10.55;;;;;;;;;;2102114;28;19920;-46
2021/08/24 05:03:16;;;;;;;15.00;10.20;;;;;;;;;;2104248;28;20043;-47
2021/08/24 05:04:17;;;;;;;18.33;11.27;;;;;;;;;;2103217;28;20083;-46
2021/08/24 05:05:19;;;;;;;18.00;11.43;;;;;;;;;;2101700;28;20052;-47
2021/08/24 05:06:20;;;;;;;17.17;10.93;;;;;;;;;;2105252;28;20139;-44
2021/08/24 05:07:25;;;;;;;19.48;11.55;;;;;;;;;;2105527;28;20221;-43
2021/08/24 05:08:27;;;;;;;17.40;11.15;;;;;;;;;;2102629;28;20083;-43
2021/08/24 05:09:29;;;;;;;22.83;12.00;;;;;;;;;;2105582;28;20143;-44
2021/08/24 05:10:30;;;;;;;19.63;12.07;;;;;;;;;;2105137;28;20125;-44
2021/08/24 05:11:31;;;;;;;17.77;12.07;;;;;;;;;;2103363;28;20528;-44
2021/08/24 05:12:32;;;;;;;15.40;11.17;;;;;;;;;;2105708;28;20055;-48
2021/08/24 05:13:33;;;;;;;19.15;11.75;;;;;;;;;;2104143;28;20142;-45
2021/08/24 05:14:35;;;;;;;17.30;11.88;;;;;;;;;;2103519;28;20123;-45
2021/08/24 05:15:36;;;;;;;16.02;11.30;;;;;;;;;;2105673;28;20554;-44
2021/08/24 05:16:38;;;;;;;18.23;10.80;;;;;;;;;;2102215;28;20045;-45
2021/08/24 05:17:39;;;;;;;18.83;11.95;;;;;;;;;;2099472;28;20131;-44
2021/08/24 05:18:41;;;;;;;18.15;12.38;;;;;;;;;;2097208;28;20055;-47
2021/08/24 05:19:41;;;;;;;16.33;11.35;;;;;;;;;;2100366;28;20048;-45
2021/08/24 05:20:43;;;;;;;17.87;12.27;;;;;;;;;;2104325;28;20067;-44
2021/08/24 05:21:43;;;;;;;17.80;12.73;;;;;;;;;;2105631;28;20052;-45
2021/08/24 05:22:45;;;;;;;22.17;11.60;;;;;;;;;;2102483;28;20488;-46
2021/08/24 05:23:46;;;;;;;17.45;10.77;;;;;;;;;;2104253;28;20127;-46
2021/08/24 05:24:47;;;;;;;17.90;11.75;;;;;;;;;;2105657;28;20108;-45
2021/08/24 05:25:48;;;;;;;20.50;13.63;;;;;;;;;;2102118;28;20050;-47
2021/08/24 05:26:51;;;;;;;18.20;11.88;;;;;;;;;;2104242;28;20083;-46
2021/08/24 05:27:52;;;;;;;20.63;12.70;;;;;;;;;;2105524;28;20130;-49
2021/08/24 05:28:54;;;;;;;17.80;11.95;;;;;;;;;;2100545;28;20569;-45
2021/08/24 05:29:55;;;;;;;23.50;12.95;;;;;;;;;;2104746;28;20052;-45
2021/08/24 05:30:57;;;;;;;19.85;12.40;;;;;;;;;;2105565;28;20738;-45
2021/08/24 05:31:58;;;;;;;18.90;12.50;;;;;;;;;;2102024;28;20071;-44
2021/08/24 05:33:00;;;;;;;22.37;13.20;;;;;;;;;;2105513;28;20143;-45
2021/08/24 05:34:01;;;;;;;19.92;12.15;;;;;;;;;;2105719;28;20135;-43
2021/08/24 05:35:02;;;;;;;21.13;12.03;;;;;;;;;;2100667;28;20047;-43
2021/08/24 05:36:03;;;;;;;20.02;12.45;;;;;;;;;;2097111;28;20533;-43
2021/08/24 05:37:05;;;;;;;21.58;11.98;;;;;;;;;;2097208;28;20559;-45
2021/08/24 05:38:06;;;;;;;18.42;11.52;;;;;;;;;;2102789;28;20178;-43
2021/08/24 05:39:07;;;;;;;17.43;11.40;;;;;;;;;;2106538;28;20440;-44
2021/08/24 05:40:09;;;;;;;16.20;11.23;;;;;;;;;;2106734;28;20051;-43
2021/08/24 05:41:10;;;;;;;17.13;11.65;;;;;;;;;;2104448;28;20494;-43
2021/08/24 05:42:11;;;;;;;15.77;11.07;;;;;;;;;;2107205;28;20370;-43
2021/08/24 05:43:12;;;;;;;17.23;10.80;;;;;;;;;;2105730;28;20048;-45
2021/08/24 05:44:13;;;;;;;15.70;10.98;;;;;;;;;;2104870;28;20135;-43
2021/08/24 05:45:15;;;;;;;18.75;11.40;;;;;;;;;;2106856;28;20602;-43
2021/08/24 05:46:16;;;;;;;19.08;11.05;;;;;;;;;;2104494;28;20152;-43
2021/08/24 05:47:17;;;;;;;17.30;10.75;;;;;;;;;;2104486;28;20052;-45
2021/08/24 05:48:18;;;;;;;15.63;10.97;;;;;;;;;;2107096;28;20097;-43
2021/08/24 05:49:19;;;;;;;13.60;9.90;;;;;;;;;;2105107;28;20139;-44
2021/08/24 05:50:20;;;;;;;17.40;11.40;;;;;;;;;;2104394;28;20443;-44
2021/08/24 05:51:22;;;;;;;19.63;10.88;;;;;;;;;;2106982;28;20174;-44
2021/08/24 05:52:23;;;;;;;17.75;11.15;;;;;;;;;;2102452;28;20055;-43
2021/08/24 05:53:24;;;;;;;19.83;10.70;;;;;;;;;;2106267;28;20450;-43
2021/08/24 05:54:25;;;;;;;15.90;10.40;;;;;;;;;;2106859;28;20477;-44
2021/08/24 05:55:26;;;;;;;12.82;9.60;;;;;;;;;;2102430;28;20174;-44
2021/08/24 05:56:28;;;;;;;18.33;10.80;;;;;;;;;;2106726;28;20052;-43
2021/08/24 05:57:29;;;;;;;15.85;9.68;;;;;;;;;;2106910;28;20048;-44
2021/08/24 05:58:30;;;;;;;18.35;9.63;;;;;;;;;;2104442;28;20064;-43
2021/08/24 05:59:31;;;;;;;17.40;10.83;;;;;;;;;;2106045;28;20064;-43
2021/08/24 06:00:33;;;;;;;16.05;10.02;;;;;;;;;;2106695;28;20127;-44
2021/08/24 06:01:34;;;;;;;18.20;10.77;;;;;;;;;;2103662;28;20468;-44
2021/08/24 06:02:35;;;;;;;16.05;10.57;;;;;;;;;;2106717;28;20413;-43
2021/08/24 06:03:37;;;;;;;16.00;10.20;;;;;;;;;;2106816;28;20127;-43
2021/08/24 06:04:38;;;;;;;17.40;9.75;;;;;;;;;;2103593;28;20101;-43
2021/08/24 06:05:40;;;;;;;15.47;9.93;;;;;;;;;;2106767;28;20052;-44
2021/08/24 06:06:43;;;;;;;14.40;10.25;;;;;;;;;;2106516;28;20139;-43
2021/08/24 06:07:44;;;;;;;13.27;9.50;;;;;;;;;;2103837;28;20458;-44
2021/08/24 06:08:45;;;;;;;14.93;10.13;;;;;;;;;;2106885;28;20101;-43